createdAt,value
2017-12-02T00:00:03.633Z,1017.01
2017-12-02T00:01:03.603Z,1017.05
2017-12-02T00:02:03.577Z,1017.11
2017-12-02T00:03:03.550Z,1017.09
2017-12-02T00:04:03.523Z,1017.16
2017-12-02T00:05:03.495Z,1017.17
2017-12-02T00:06:03.472Z,1017.17
2017-12-02T00:07:03.441Z,1017.16
2017-12-02T00:08:03.413Z,1017.16
2017-12-02T00:09:03.384Z,1017.09
2017-12-02T00:10:03.359Z,1017.11
2017-12-02T00:11:03.332Z,1017.13
2017-12-02T00:12:03.304Z,1017.10
2017-12-02T00:13:03.278Z,1017.09
2017-12-02T00:14:03.250Z,1017.13
2017-12-02T00:15:03.221Z,1017.13
2017-12-02T00:16:03.197Z,1017.14
2017-12-02T00:17:03.167Z,1017.17
2017-12-02T00:18:03.142Z,1017.21
2017-12-02T00:19:03.114Z,1017.17
2017-12-02T00:20:03.087Z,1017.17
2017-12-02T00:21:03.060Z,1017.16
2017-12-02T00:22:03.029Z,1017.18
2017-12-02T00:23:03.006Z,1017.18
2017-12-02T00:24:02.977Z,1017.16
2017-12-02T00:25:02.948Z,1017.20
2017-12-02T00:26:02.923Z,1017.22
2017-12-02T00:27:02.896Z,1017.22
2017-12-02T00:28:02.868Z,1017.27
2017-12-02T00:29:02.854Z,1017.27
2017-12-02T00:30:02.814Z,1017.27
2017-12-02T00:31:02.788Z,1017.32
2017-12-02T00:32:02.759Z,1017.32
2017-12-02T00:33:02.732Z,1017.32
2017-12-02T00:34:02.705Z,1017.30
2017-12-02T00:35:02.679Z,1017.32
2017-12-02T00:36:02.651Z,1017.35
2017-12-02T00:37:02.622Z,1017.36
2017-12-02T00:38:02.596Z,1017.40
2017-12-02T00:39:02.570Z,1017.42
2017-12-02T00:40:02.545Z,1017.44
2017-12-02T00:41:02.516Z,1017.45
2017-12-02T00:42:02.487Z,1017.48
2017-12-02T00:43:02.464Z,1017.46
2017-12-02T00:44:02.434Z,1017.50
2017-12-02T00:45:02.407Z,1017.47
2017-12-02T00:46:02.379Z,1017.53
2017-12-02T00:47:02.350Z,1017.50
2017-12-02T00:48:02.325Z,1017.55
2017-12-02T00:49:02.295Z,1017.56
2017-12-02T00:50:02.273Z,1017.53
2017-12-02T00:51:02.246Z,1017.55
2017-12-02T00:52:02.215Z,1017.56
2017-12-02T00:53:02.189Z,1017.56
2017-12-02T00:54:02.162Z,1017.55
2017-12-02T00:55:02.141Z,1017.59
2017-12-02T00:56:02.106Z,1017.55
2017-12-02T00:57:02.081Z,1017.56
2017-12-02T00:58:02.054Z,1017.55
2017-12-02T00:59:02.028Z,1017.57
2017-12-02T01:00:02.003Z,1017.57
2017-12-02T01:01:01.973Z,1017.60
2017-12-02T01:02:01.946Z,1017.57
2017-12-02T01:03:01.916Z,1017.57
2017-12-02T01:04:01.890Z,1017.57
2017-12-02T01:05:01.864Z,1017.56
2017-12-02T01:06:01.836Z,1017.57
2017-12-02T01:07:01.811Z,1017.58
2017-12-02T01:08:01.781Z,1017.61
2017-12-02T01:09:01.755Z,1017.62
2017-12-02T01:10:01.728Z,1017.57
2017-12-02T01:11:01.701Z,1017.59
2017-12-02T01:12:01.674Z,1017.59
2017-12-02T01:13:01.644Z,1017.61
2017-12-02T01:14:01.619Z,1017.68
2017-12-02T01:15:01.591Z,1017.68
2017-12-02T01:16:01.566Z,1017.71
2017-12-02T01:17:01.552Z,1017.75
2017-12-02T01:18:01.511Z,1017.71
2017-12-02T01:19:01.483Z,1017.72
2017-12-02T01:20:01.455Z,1017.70
2017-12-02T01:21:01.429Z,1017.73
2017-12-02T01:22:01.396Z,1017.77
2017-12-02T01:23:01.373Z,1017.77
2017-12-02T01:24:01.351Z,1017.80
2017-12-02T01:25:01.321Z,1017.86
2017-12-02T01:26:01.291Z,1017.88
2017-12-02T01:27:01.266Z,1017.89
2017-12-02T01:28:01.240Z,1017.88
2017-12-02T01:29:01.215Z,1017.93
2017-12-02T01:30:01.190Z,1017.94
2017-12-02T01:31:01.157Z,1017.92
2017-12-02T01:32:01.132Z,1017.88
2017-12-02T01:33:01.101Z,1017.90
2017-12-02T01:34:01.081Z,1017.86
2017-12-02T01:35:01.049Z,1017.90
2017-12-02T01:36:01.021Z,1017.85
2017-12-02T01:37:00.995Z,1017.91
2017-12-02T01:38:00.970Z,1017.93
2017-12-02T01:39:00.941Z,1017.96
2017-12-02T01:40:00.914Z,1017.96
2017-12-02T01:41:00.888Z,1017.96
2017-12-02T01:42:00.858Z,1017.98
2017-12-02T01:43:00.831Z,1018.06
2017-12-02T01:44:00.805Z,1018.01
2017-12-02T01:45:00.779Z,1018.06
2017-12-02T01:46:00.752Z,1018.07
2017-12-02T01:47:00.726Z,1018.10
2017-12-02T01:48:00.701Z,1018.14
2017-12-02T01:49:00.669Z,1018.10
2017-12-02T01:50:00.642Z,1018.14
2017-12-02T01:51:00.622Z,1018.13
2017-12-02T01:52:00.601Z,1018.10
2017-12-02T01:53:00.562Z,1018.13
2017-12-02T01:54:00.533Z,1018.16
2017-12-02T01:55:00.507Z,1018.17
2017-12-02T01:56:00.480Z,1018.17
2017-12-02T01:57:00.451Z,1018.20
2017-12-02T01:58:00.430Z,1018.17
2017-12-02T01:59:00.398Z,1018.22
2017-12-02T02:00:00.372Z,1018.23
2017-12-02T02:01:00.344Z,1018.21
2017-12-02T02:02:00.317Z,1018.24
2017-12-02T02:03:00.290Z,1018.25
2017-12-02T02:04:00.265Z,1018.26
2017-12-02T02:05:00.238Z,1018.27
2017-12-02T02:06:00.209Z,1018.31
2017-12-02T02:07:00.181Z,1018.30
2017-12-02T02:08:00.153Z,1018.31
2017-12-02T02:09:00.134Z,1018.34
2017-12-02T02:10:00.101Z,1018.29
2017-12-02T02:11:00.073Z,1018.32
2017-12-02T02:12:00.050Z,1018.29
2017-12-02T02:13:00.020Z,1018.33
2017-12-02T02:13:59.998Z,1018.34
2017-12-02T02:14:59.968Z,1018.35
2017-12-02T02:15:59.940Z,1018.35
2017-12-02T02:16:59.911Z,1018.35
2017-12-02T02:17:59.884Z,1018.36
2017-12-02T02:18:59.857Z,1018.39
2017-12-02T02:19:59.832Z,1018.37
2017-12-02T02:20:59.803Z,1018.35
2017-12-02T02:21:59.777Z,1018.43
2017-12-02T02:22:59.751Z,1018.38
2017-12-02T02:23:59.724Z,1018.40
2017-12-02T02:24:59.696Z,1018.37
2017-12-02T02:25:59.668Z,1018.37
2017-12-02T02:26:59.641Z,1018.34
2017-12-02T02:27:59.615Z,1018.35
2017-12-02T02:28:59.589Z,1018.35
2017-12-02T02:29:59.560Z,1018.38
2017-12-02T02:30:59.535Z,1018.38
2017-12-02T02:31:59.509Z,1018.37
2017-12-02T02:32:59.485Z,1018.40
2017-12-02T02:33:59.451Z,1018.42
2017-12-02T02:34:59.425Z,1018.42
2017-12-02T02:35:59.401Z,1018.42
2017-12-02T02:36:59.370Z,1018.40
2017-12-02T02:37:59.344Z,1018.43
2017-12-02T02:38:59.316Z,1018.46
2017-12-02T02:39:59.291Z,1018.51
2017-12-02T02:40:59.269Z,1018.52
2017-12-02T02:41:59.236Z,1018.50
2017-12-02T02:42:59.208Z,1018.56
2017-12-02T02:43:59.180Z,1018.53
2017-12-02T02:44:59.154Z,1018.53
2017-12-02T02:45:59.127Z,1018.51
2017-12-02T02:46:59.099Z,1018.52
2017-12-02T02:47:59.072Z,1018.48
2017-12-02T02:48:59.046Z,1018.50
2017-12-02T02:49:59.017Z,1018.49
2017-12-02T02:50:58.989Z,1018.50
2017-12-02T02:51:58.965Z,1018.52
2017-12-02T02:52:58.936Z,1018.53
2017-12-02T02:53:58.908Z,1018.54
2017-12-02T02:54:58.887Z,1018.56
2017-12-02T02:55:58.865Z,1018.57
2017-12-02T02:56:58.865Z,1018.57
2017-12-02T02:57:58.801Z,1018.52
2017-12-02T02:58:58.771Z,1018.58
2017-12-02T02:59:58.751Z,1018.56
2017-12-02T03:00:58.720Z,1018.51
2017-12-02T03:01:58.694Z,1018.53
2017-12-02T03:02:58.665Z,1018.52
2017-12-02T03:03:58.638Z,1018.52
2017-12-02T03:04:58.611Z,1018.55
2017-12-02T03:05:58.583Z,1018.51
2017-12-02T03:06:58.555Z,1018.59
2017-12-02T03:07:58.536Z,1018.59
2017-12-02T03:08:58.502Z,1018.58
2017-12-02T03:09:58.476Z,1018.57
2017-12-02T03:10:58.450Z,1018.57
2017-12-02T03:11:58.421Z,1018.65
2017-12-02T03:12:58.395Z,1018.61
2017-12-02T03:13:58.365Z,1018.67
2017-12-02T03:14:58.338Z,1018.68
2017-12-02T03:15:58.311Z,1018.73
2017-12-02T03:16:58.284Z,1018.71
2017-12-02T03:17:58.256Z,1018.69
2017-12-02T03:18:58.231Z,1018.73
2017-12-02T03:19:58.202Z,1018.76
2017-12-02T03:20:58.176Z,1018.76
2017-12-02T03:21:58.148Z,1018.78
2017-12-02T03:22:58.121Z,1018.82
2017-12-02T03:23:58.096Z,1018.80
2017-12-02T03:24:58.065Z,1018.78
2017-12-02T03:25:58.039Z,1018.77
2017-12-02T03:26:58.013Z,1018.74
2017-12-02T03:27:57.986Z,1018.73
2017-12-02T03:28:57.958Z,1018.77
2017-12-02T03:29:57.931Z,1018.77
2017-12-02T03:30:57.904Z,1018.78
2017-12-02T03:31:57.875Z,1018.72
2017-12-02T03:32:57.848Z,1018.75
2017-12-02T03:33:57.822Z,1018.80
2017-12-02T03:34:57.797Z,1018.78
2017-12-02T03:35:57.767Z,1018.74
2017-12-02T03:36:57.738Z,1018.77
2017-12-02T03:37:57.713Z,1018.75
2017-12-02T03:38:57.691Z,1018.75
2017-12-02T03:39:57.659Z,1018.80
2017-12-02T03:40:57.631Z,1018.76
2017-12-02T03:41:57.603Z,1018.76
2017-12-02T03:42:57.577Z,1018.77
2017-12-02T03:43:57.550Z,1018.75
2017-12-02T03:44:57.523Z,1018.77
2017-12-02T03:45:57.497Z,1018.76
2017-12-02T03:46:57.464Z,1018.80
2017-12-02T03:47:57.442Z,1018.78
2017-12-02T03:48:57.413Z,1018.77
2017-12-02T03:49:57.386Z,1018.77
2017-12-02T03:50:57.362Z,1018.77
2017-12-02T03:51:57.331Z,1018.81
2017-12-02T03:52:57.305Z,1018.81
2017-12-02T03:53:57.279Z,1018.82
2017-12-02T03:54:57.249Z,1018.83
2017-12-02T03:55:57.223Z,1018.86
2017-12-02T03:56:57.196Z,1018.90
2017-12-02T03:57:57.168Z,1018.92
2017-12-02T03:58:57.141Z,1018.97
2017-12-02T03:59:57.113Z,1018.99
2017-12-02T04:00:57.086Z,1019.04
2017-12-02T04:01:57.058Z,1019.08
2017-12-02T04:02:57.032Z,1019.02
2017-12-02T04:03:57.006Z,1019.06
2017-12-02T04:04:56.976Z,1019.06
2017-12-02T04:05:56.949Z,1019.09
2017-12-02T04:06:56.921Z,1019.08
2017-12-02T04:07:56.897Z,1019.08
2017-12-02T04:08:56.867Z,1019.07
2017-12-02T04:09:56.841Z,1019.08
2017-12-02T04:10:56.815Z,1019.08
2017-12-02T04:11:56.786Z,1019.11
2017-12-02T04:12:56.758Z,1019.13
2017-12-02T04:13:56.730Z,1019.08
2017-12-02T04:14:56.703Z,1019.08
2017-12-02T04:15:56.675Z,1019.05
2017-12-02T04:16:56.651Z,1019.05
2017-12-02T04:17:56.621Z,1019.03
2017-12-02T04:18:56.594Z,1019.02
2017-12-02T04:19:56.568Z,1019.05
2017-12-02T04:20:56.539Z,1019.03
2017-12-02T04:21:56.512Z,1019.06
2017-12-02T04:22:56.483Z,1019.10
2017-12-02T04:23:56.458Z,1019.05
2017-12-02T04:24:56.430Z,1019.14
2017-12-02T04:25:56.406Z,1019.12
2017-12-02T04:26:56.377Z,1019.12
2017-12-02T04:27:56.350Z,1019.12
2017-12-02T04:28:56.319Z,1019.09
2017-12-02T04:29:56.294Z,1019.06
2017-12-02T04:30:56.266Z,1019.04
2017-12-02T04:31:56.240Z,1019.06
2017-12-02T04:32:56.213Z,1019.04
2017-12-02T04:33:56.184Z,1019.08
2017-12-02T04:34:56.157Z,1019.06
2017-12-02T04:35:56.130Z,1019.08
2017-12-02T04:36:56.104Z,1019.08
2017-12-02T04:37:56.075Z,1019.10
2017-12-02T04:38:56.047Z,1019.08
2017-12-02T04:39:56.019Z,1019.05
2017-12-02T04:40:55.992Z,1019.08
2017-12-02T04:41:55.966Z,1019.07
2017-12-02T04:42:55.939Z,1019.06
2017-12-02T04:43:55.912Z,1019.04
2017-12-02T04:44:55.883Z,1019.09
2017-12-02T04:45:55.857Z,1019.08
2017-12-02T04:46:55.830Z,1019.06
2017-12-02T04:47:55.800Z,1019.09
2017-12-02T04:48:55.778Z,1019.11
2017-12-02T04:49:55.746Z,1019.11
2017-12-02T04:50:55.721Z,1019.06
2017-12-02T04:51:55.693Z,1019.07
2017-12-02T04:52:55.664Z,1019.07
2017-12-02T04:53:55.637Z,1019.06
2017-12-02T04:54:55.610Z,1019.08
2017-12-02T04:55:55.581Z,1019.05
2017-12-02T04:56:55.555Z,1019.07
2017-12-02T04:57:55.521Z,1019.06
2017-12-02T04:58:55.499Z,1019.01
2017-12-02T04:59:55.474Z,1019.05
2017-12-02T05:00:55.446Z,1019.05
2017-12-02T05:01:55.417Z,1019.06
2017-12-02T05:02:55.393Z,1019.03
2017-12-02T05:03:55.365Z,1019.03
2017-12-02T05:04:55.336Z,1019.05
2017-12-02T05:05:55.309Z,1019.03
2017-12-02T05:06:55.283Z,1019.00
2017-12-02T05:07:55.254Z,1019.02
2017-12-02T05:08:55.223Z,1019.00
2017-12-02T05:09:55.201Z,1019.03
2017-12-02T05:10:55.173Z,1019.03
2017-12-02T05:11:55.145Z,1019.02
2017-12-02T05:12:55.117Z,1019.04
2017-12-02T05:13:55.089Z,1019.03
2017-12-02T05:14:55.062Z,1019.04
2017-12-02T05:15:55.035Z,1019.04
2017-12-02T05:16:55.007Z,1019.04
2017-12-02T05:17:54.979Z,1019.06
2017-12-02T05:18:54.953Z,1019.05
2017-12-02T05:19:54.927Z,1019.04
2017-12-02T05:20:54.897Z,1019.08
2017-12-02T05:21:54.868Z,1019.09
2017-12-02T05:22:54.845Z,1019.09
2017-12-02T05:23:54.815Z,1019.06
2017-12-02T05:24:54.787Z,1019.08
2017-12-02T05:25:54.762Z,1019.11
2017-12-02T05:26:54.733Z,1019.12
2017-12-02T05:27:54.707Z,1019.13
2017-12-02T05:28:54.680Z,1019.11
2017-12-02T05:29:54.695Z,1019.15
2017-12-02T05:30:54.625Z,1019.15
2017-12-02T05:31:54.596Z,1019.15
2017-12-02T05:32:54.569Z,1019.17
2017-12-02T05:33:54.542Z,1019.20
2017-12-02T05:34:54.514Z,1019.21
2017-12-02T05:35:54.489Z,1019.23
2017-12-02T05:36:54.457Z,1019.20
2017-12-02T05:37:54.435Z,1019.21
2017-12-02T05:38:54.405Z,1019.20
2017-12-02T05:39:54.382Z,1019.21
2017-12-02T05:40:54.355Z,1019.23
2017-12-02T05:41:54.328Z,1019.28
2017-12-02T05:42:54.298Z,1019.28
2017-12-02T05:43:54.272Z,1019.35
2017-12-02T05:44:54.242Z,1019.37
2017-12-02T05:45:54.216Z,1019.40
2017-12-02T05:46:54.190Z,1019.41
2017-12-02T05:47:54.163Z,1019.39
2017-12-02T05:48:54.134Z,1019.40
2017-12-02T05:49:54.135Z,1019.39
2017-12-02T05:50:54.080Z,1019.39
2017-12-02T05:51:54.055Z,1019.42
2017-12-02T05:52:54.024Z,1019.42
2017-12-02T05:53:54.000Z,1019.48
2017-12-02T05:54:53.971Z,1019.47
2017-12-02T05:55:53.944Z,1019.48
2017-12-02T05:56:53.916Z,1019.48
2017-12-02T05:57:53.889Z,1019.50
2017-12-02T05:58:53.862Z,1019.53
2017-12-02T05:59:53.838Z,1019.54
2017-12-02T06:00:53.808Z,1019.58
2017-12-02T06:01:53.801Z,1019.60
2017-12-02T06:02:53.753Z,1019.65
2017-12-02T06:03:53.727Z,1019.67
2017-12-02T06:04:53.702Z,1019.70
2017-12-02T06:05:53.672Z,1019.69
2017-12-02T06:06:53.645Z,1019.73
2017-12-02T06:07:53.619Z,1019.71
2017-12-02T06:08:53.590Z,1019.69
2017-12-02T06:09:53.563Z,1019.72
2017-12-02T06:10:53.535Z,1019.73
2017-12-02T06:11:53.508Z,1019.74
2017-12-02T06:12:53.480Z,1019.79
2017-12-02T06:13:53.455Z,1019.77
2017-12-02T06:14:53.427Z,1019.82
2017-12-02T06:15:53.400Z,1019.83
2017-12-02T06:16:53.372Z,1019.81
2017-12-02T06:17:53.347Z,1019.84
2017-12-02T06:18:53.316Z,1019.88
2017-12-02T06:19:53.292Z,1019.89
2017-12-02T06:20:53.263Z,1019.92
2017-12-02T06:21:53.235Z,1019.90
2017-12-02T06:22:53.208Z,1019.90
2017-12-02T06:23:53.181Z,1019.92
2017-12-02T06:24:53.154Z,1019.94
2017-12-02T06:25:53.127Z,1019.88
2017-12-02T06:26:53.101Z,1019.89
2017-12-02T06:27:53.074Z,1019.91
2017-12-02T06:28:53.044Z,1019.89
2017-12-02T06:29:53.019Z,1019.92
2017-12-02T06:30:52.995Z,1019.98
2017-12-02T06:31:52.965Z,1019.93
2017-12-02T06:32:52.939Z,1020.00
2017-12-02T06:33:52.914Z,1020.02
2017-12-02T06:34:52.881Z,1020.03
2017-12-02T06:35:52.856Z,1020.06
2017-12-02T06:36:52.828Z,1020.04
2017-12-02T06:37:52.801Z,1020.04
2017-12-02T06:38:52.773Z,1020.10
2017-12-02T06:39:52.746Z,1020.07
2017-12-02T06:40:52.718Z,1020.08
2017-12-02T06:41:52.692Z,1020.08
2017-12-02T06:42:52.664Z,1020.10
2017-12-02T06:43:52.640Z,1020.14
2017-12-02T06:44:52.609Z,1020.16
2017-12-02T06:45:52.583Z,1020.12
2017-12-02T06:46:52.557Z,1020.17
2017-12-02T06:47:52.530Z,1020.19
2017-12-02T06:48:52.502Z,1020.21
2017-12-02T06:49:52.473Z,1020.17
2017-12-02T06:50:52.447Z,1020.21
2017-12-02T06:51:52.420Z,1020.18
2017-12-02T06:52:52.390Z,1020.18
2017-12-02T06:53:52.365Z,1020.20
2017-12-02T06:54:52.338Z,1020.23
2017-12-02T06:55:52.309Z,1020.20
2017-12-02T06:56:52.286Z,1020.18
2017-12-02T06:57:52.257Z,1020.18
2017-12-02T06:58:52.229Z,1020.16
2017-12-02T06:59:52.200Z,1020.19
2017-12-02T07:00:52.173Z,1020.18
2017-12-02T07:01:52.147Z,1020.16
2017-12-02T07:02:52.118Z,1020.20
2017-12-02T07:03:52.095Z,1020.18
2017-12-02T07:04:52.065Z,1020.19
2017-12-02T07:05:52.037Z,1020.23
2017-12-02T07:06:52.010Z,1020.21
2017-12-02T07:07:51.985Z,1020.19
2017-12-02T07:08:51.955Z,1020.18
2017-12-02T07:09:51.928Z,1020.17
2017-12-02T07:10:51.900Z,1020.19
2017-12-02T07:11:51.875Z,1020.15
2017-12-02T07:12:51.846Z,1020.18
2017-12-02T07:13:51.824Z,1020.17
2017-12-02T07:14:51.791Z,1020.15
2017-12-02T07:15:51.767Z,1020.18
2017-12-02T07:16:51.736Z,1020.24
2017-12-02T07:17:51.709Z,1020.26
2017-12-02T07:18:51.682Z,1020.23
2017-12-02T07:19:51.654Z,1020.23
2017-12-02T07:20:51.627Z,1020.26
2017-12-02T07:21:51.600Z,1020.23
2017-12-02T07:22:51.572Z,1020.25
2017-12-02T07:23:51.544Z,1020.29
2017-12-02T07:24:51.520Z,1020.24
2017-12-02T07:25:51.490Z,1020.26
2017-12-02T07:26:51.463Z,1020.27
2017-12-02T07:27:51.437Z,1020.30
2017-12-02T07:28:51.409Z,1020.28
2017-12-02T07:29:51.382Z,1020.32
2017-12-02T07:30:51.408Z,1020.29
2017-12-02T07:31:51.327Z,1020.30
2017-12-02T07:32:51.298Z,1020.27
2017-12-02T07:33:51.271Z,1020.26
2017-12-02T07:34:51.246Z,1020.28
2017-12-02T07:35:51.217Z,1020.29
2017-12-02T07:36:51.192Z,1020.28
2017-12-02T07:37:51.177Z,1020.28
2017-12-02T07:38:51.135Z,1020.27
2017-12-02T07:39:51.108Z,1020.26
2017-12-02T07:40:51.082Z,1020.26
2017-12-02T07:41:51.054Z,1020.27
2017-12-02T07:42:51.028Z,1020.25
2017-12-02T07:43:51.006Z,1020.23
2017-12-02T07:44:50.971Z,1020.18
2017-12-02T07:45:50.946Z,1020.17
2017-12-02T07:46:50.917Z,1020.17
2017-12-02T07:47:50.891Z,1020.17
2017-12-02T07:48:50.862Z,1020.16
2017-12-02T07:49:50.837Z,1020.16
2017-12-02T07:50:50.815Z,1020.18
2017-12-02T07:51:50.781Z,1020.22
2017-12-02T07:52:50.754Z,1020.22
2017-12-02T07:53:50.727Z,1020.20
2017-12-02T07:54:50.703Z,1020.23
2017-12-02T07:55:50.673Z,1020.22
2017-12-02T07:56:50.644Z,1020.28
2017-12-02T07:57:50.619Z,1020.25
2017-12-02T07:58:50.590Z,1020.24
2017-12-02T07:59:50.565Z,1020.29
2017-12-02T08:00:50.538Z,1020.30
2017-12-02T08:01:50.509Z,1020.28
2017-12-02T08:02:50.481Z,1020.34
2017-12-02T08:03:50.454Z,1020.33
2017-12-02T08:04:50.427Z,1020.30
2017-12-02T08:05:50.400Z,1020.33
2017-12-02T08:06:50.373Z,1020.30
2017-12-02T08:07:50.346Z,1020.30
2017-12-02T08:08:50.318Z,1020.29
2017-12-02T08:09:50.290Z,1020.27
2017-12-02T08:10:50.265Z,1020.28
2017-12-02T08:11:50.238Z,1020.26
2017-12-02T08:12:50.210Z,1020.27
2017-12-02T08:13:50.184Z,1020.29
2017-12-02T08:14:50.155Z,1020.29
2017-12-02T08:15:50.127Z,1020.30
2017-12-02T08:16:50.101Z,1020.34
2017-12-02T08:17:50.076Z,1020.31
2017-12-02T08:18:50.046Z,1020.31
2017-12-02T08:19:50.021Z,1020.36
2017-12-02T08:20:49.992Z,1020.33
2017-12-02T08:21:49.965Z,1020.36
2017-12-02T08:22:49.938Z,1020.35
2017-12-02T08:23:49.914Z,1020.36
2017-12-02T08:24:49.884Z,1020.36
2017-12-02T08:25:49.856Z,1020.34
2017-12-02T08:26:49.829Z,1020.39
2017-12-02T08:27:49.803Z,1020.38
2017-12-02T08:28:49.779Z,1020.41
2017-12-02T08:29:49.749Z,1020.45
2017-12-02T08:30:49.721Z,1020.46
2017-12-02T08:31:49.693Z,1020.45
2017-12-02T08:32:49.667Z,1020.46
2017-12-02T08:33:49.640Z,1020.48
2017-12-02T08:34:49.614Z,1020.49
2017-12-02T08:35:49.587Z,1020.50
2017-12-02T08:36:49.558Z,1020.51
2017-12-02T08:37:49.527Z,1020.48
2017-12-02T08:38:49.505Z,1020.49
2017-12-02T08:39:49.479Z,1020.55
2017-12-02T08:40:49.449Z,1020.53
2017-12-02T08:41:49.423Z,1020.57
2017-12-02T08:42:49.397Z,1020.57
2017-12-02T08:43:49.367Z,1020.61
2017-12-02T08:44:49.343Z,1020.60
2017-12-02T08:45:49.315Z,1020.60
2017-12-02T08:46:49.288Z,1020.61
2017-12-02T08:47:49.262Z,1020.63
2017-12-02T08:48:49.233Z,1020.62
2017-12-02T08:49:49.205Z,1020.62
2017-12-02T08:50:49.177Z,1020.62
2017-12-02T08:51:49.150Z,1020.66
2017-12-02T08:52:49.124Z,1020.67
2017-12-02T08:53:49.101Z,1020.72
2017-12-02T08:54:49.075Z,1020.70
2017-12-02T08:55:49.045Z,1020.76
2017-12-02T08:56:49.015Z,1020.75
2017-12-02T08:57:48.990Z,1020.79
2017-12-02T08:58:48.961Z,1020.80
2017-12-02T08:59:48.937Z,1020.78
2017-12-02T09:00:48.910Z,1020.80
2017-12-02T09:01:48.907Z,1020.83
2017-12-02T09:02:48.855Z,1020.81
2017-12-02T09:03:48.827Z,1020.82
2017-12-02T09:04:48.800Z,1020.83
2017-12-02T09:05:48.772Z,1020.80
2017-12-02T09:06:48.747Z,1020.79
2017-12-02T09:07:48.719Z,1020.81
2017-12-02T09:08:48.706Z,1020.78
2017-12-02T09:09:48.664Z,1020.88
2017-12-02T09:10:48.636Z,1020.87
2017-12-02T09:11:48.608Z,1020.89
2017-12-02T09:12:48.586Z,1020.92
2017-12-02T09:13:48.555Z,1020.90
2017-12-02T09:14:48.593Z,1020.93
2017-12-02T09:15:48.586Z,1020.93
2017-12-02T09:16:48.567Z,1020.92
2017-12-02T09:17:48.546Z,1020.90
2017-12-02T09:18:48.426Z,1020.91
2017-12-02T09:19:48.391Z,1020.91
2017-12-02T09:20:48.364Z,1020.99
2017-12-02T09:21:48.336Z,1020.99
2017-12-02T09:22:48.310Z,1020.99
2017-12-02T09:23:48.311Z,1021.03
2017-12-02T09:24:48.257Z,1021.06
2017-12-02T09:25:48.274Z,1021.07
2017-12-02T09:26:48.203Z,1021.02
2017-12-02T09:27:48.172Z,1021.07
2017-12-02T09:28:48.145Z,1021.05
2017-12-02T09:29:48.118Z,1021.07
2017-12-02T09:30:48.092Z,1021.12
2017-12-02T09:31:48.065Z,1021.09
2017-12-02T09:32:48.037Z,1021.13
2017-12-02T09:33:48.051Z,1021.15
2017-12-02T09:34:47.982Z,1021.23
2017-12-02T09:35:47.957Z,1021.23
2017-12-02T09:36:47.928Z,1021.25
2017-12-02T09:37:47.901Z,1021.22
2017-12-02T09:38:47.876Z,1021.27
2017-12-02T09:39:47.844Z,1021.23
2017-12-02T09:40:47.822Z,1021.24
2017-12-02T09:41:47.793Z,1021.28
2017-12-02T09:42:47.766Z,1021.32
2017-12-02T09:43:47.738Z,1021.34
2017-12-02T09:44:47.711Z,1021.31
2017-12-02T09:45:47.682Z,1021.35
2017-12-02T09:46:47.723Z,1021.37
2017-12-02T09:47:47.629Z,1021.39
2017-12-02T09:48:47.602Z,1021.40
2017-12-02T09:49:47.573Z,1021.37
2017-12-02T09:50:47.546Z,1021.34
2017-12-02T09:51:47.520Z,1021.35
2017-12-02T09:52:47.490Z,1021.33
2017-12-02T09:53:47.468Z,1021.35
2017-12-02T09:54:47.456Z,1021.34
2017-12-02T09:55:47.416Z,1021.40
2017-12-02T09:56:47.382Z,1021.40
2017-12-02T09:57:47.355Z,1021.40
2017-12-02T09:58:47.381Z,1021.43
2017-12-02T09:59:47.302Z,1021.42
2017-12-02T10:00:47.285Z,1021.40
2017-12-02T10:01:47.247Z,1021.44
2017-12-02T10:02:47.220Z,1021.43
2017-12-02T10:03:47.195Z,1021.44
2017-12-02T10:04:47.165Z,1021.43
2017-12-02T10:05:47.137Z,1021.43
2017-12-02T10:06:47.112Z,1021.42
2017-12-02T10:07:47.083Z,1021.38
2017-12-02T10:08:47.056Z,1021.42
2017-12-02T10:09:47.028Z,1021.43
2017-12-02T10:10:47.001Z,1021.43
2017-12-02T10:11:46.974Z,1021.40
2017-12-02T10:12:46.947Z,1021.34
2017-12-02T10:13:46.921Z,1021.36
2017-12-02T10:14:46.978Z,1021.32
2017-12-02T10:15:46.864Z,1021.31
2017-12-02T10:16:46.930Z,1021.29
2017-12-02T10:17:46.870Z,1021.37
2017-12-02T10:18:46.785Z,1021.38
2017-12-02T10:19:46.757Z,1021.34
2017-12-02T10:20:46.737Z,1021.36
2017-12-02T10:21:46.780Z,1021.35
2017-12-02T10:22:46.706Z,1021.36
2017-12-02T10:23:46.738Z,1021.38
2017-12-02T10:24:46.670Z,1021.39
2017-12-02T10:25:46.593Z,1021.40
2017-12-02T10:26:46.563Z,1021.37
2017-12-02T10:27:46.536Z,1021.39
2017-12-02T10:28:46.508Z,1021.34
2017-12-02T10:29:46.476Z,1021.44
2017-12-02T10:30:46.453Z,1021.38
2017-12-02T10:31:46.425Z,1021.36
2017-12-02T10:32:46.392Z,1021.35
2017-12-02T10:33:46.371Z,1021.34
2017-12-02T10:34:46.344Z,1021.35
2017-12-02T10:35:46.317Z,1021.32
2017-12-02T10:36:46.289Z,1021.30
2017-12-02T10:37:46.270Z,1021.31
2017-12-02T10:38:46.241Z,1021.27
2017-12-02T10:39:46.210Z,1021.26
2017-12-02T10:40:46.181Z,1021.25
2017-12-02T10:41:46.155Z,1021.20
2017-12-02T10:42:46.129Z,1021.24
2017-12-02T10:43:46.099Z,1021.19
2017-12-02T10:44:46.073Z,1021.22
2017-12-02T10:45:46.050Z,1021.18
2017-12-02T10:46:46.018Z,1021.20
2017-12-02T10:47:46.000Z,1021.17
2017-12-02T10:48:45.966Z,1021.17
2017-12-02T10:49:45.937Z,1021.18
2017-12-02T10:50:45.909Z,1021.14
2017-12-02T10:51:45.884Z,1021.17
2017-12-02T10:52:45.856Z,1021.17
2017-12-02T10:53:45.828Z,1021.17
2017-12-02T10:54:45.801Z,1021.19
2017-12-02T10:55:45.787Z,1021.24
2017-12-02T10:56:45.752Z,1021.17
2017-12-02T10:57:45.722Z,1021.19
2017-12-02T10:58:45.778Z,1021.17
2017-12-02T10:59:45.768Z,1021.19
2017-12-02T11:00:45.689Z,1021.18
2017-12-02T11:01:45.684Z,1021.17
2017-12-02T11:02:45.654Z,1021.18
2017-12-02T11:03:45.552Z,1021.10
2017-12-02T11:04:45.530Z,1021.11
2017-12-02T11:05:45.501Z,1021.13
2017-12-02T11:06:45.475Z,1021.11
2017-12-02T11:07:45.448Z,1021.09
2017-12-02T11:08:45.422Z,1021.14
2017-12-02T11:09:45.397Z,1021.13
2017-12-02T11:10:45.371Z,1021.13
2017-12-02T11:11:45.383Z,1021.07
2017-12-02T11:12:45.386Z,1021.12
2017-12-02T11:13:45.282Z,1021.11
2017-12-02T11:14:45.354Z,1021.12
2017-12-02T11:15:45.234Z,1021.09
2017-12-02T11:16:45.202Z,1021.10
2017-12-02T11:17:45.176Z,1021.06
2017-12-02T11:18:45.164Z,1021.02
2017-12-02T11:19:45.120Z,1021.05
2017-12-02T11:20:45.171Z,1020.99
2017-12-02T11:21:45.098Z,1020.95
2017-12-02T11:22:45.089Z,1020.97
2017-12-02T11:23:45.077Z,1020.95
2017-12-02T11:24:45.065Z,1020.95
2017-12-02T11:25:45.016Z,1020.97
2017-12-02T11:26:44.975Z,1020.94
2017-12-02T11:27:44.962Z,1020.98
2017-12-02T11:28:44.940Z,1021.02
2017-12-02T11:29:44.846Z,1021.08
2017-12-02T11:30:44.819Z,1021.12
2017-12-02T11:31:44.794Z,1021.08
2017-12-02T11:32:44.764Z,1021.08
2017-12-02T11:33:44.735Z,1021.11
2017-12-02T11:34:44.709Z,1021.11
2017-12-02T11:35:44.681Z,1021.09
2017-12-02T11:36:44.653Z,1021.06
2017-12-02T11:37:44.627Z,1021.02
2017-12-02T11:38:44.599Z,1020.99
2017-12-02T11:39:44.612Z,1021.01
2017-12-02T11:40:44.615Z,1020.95
2017-12-02T11:41:44.516Z,1020.98
2017-12-02T11:42:44.488Z,1020.97
2017-12-02T11:43:44.462Z,1020.95
2017-12-02T11:44:44.433Z,1020.94
2017-12-02T11:45:44.443Z,1020.91
2017-12-02T11:46:44.378Z,1020.87
2017-12-02T11:47:44.395Z,1020.88
2017-12-02T11:48:44.348Z,1020.87
2017-12-02T11:49:44.296Z,1020.84
2017-12-02T11:50:44.267Z,1020.90
2017-12-02T11:51:44.241Z,1020.87
2017-12-02T11:52:44.213Z,1020.88
2017-12-02T11:53:44.193Z,1020.87
2017-12-02T11:54:44.164Z,1020.89
2017-12-02T11:55:44.131Z,1020.85
2017-12-02T11:56:44.168Z,1020.85
2017-12-02T11:57:44.077Z,1020.88
2017-12-02T11:58:44.050Z,1020.85
2017-12-02T11:59:44.025Z,1020.87
2017-12-02T12:00:43.993Z,1020.89
2017-12-02T12:01:43.977Z,1020.84
2017-12-02T12:02:43.941Z,1020.86
2017-12-02T12:03:43.912Z,1020.81
2017-12-02T12:04:43.883Z,1020.80